sensor_id;sensor_type;location;lat;lon;timestamp;P1;durP1;ratioP1;P2;durP2;ratioP2
4500;SDS011;2263;54.654;9.410;2022-12-22T00:01:01;55.33;;;25.77;;
4500;SDS011;2263;54.654;9.410;2022-12-22T00:03:47;52.33;;;25.47;;
4500;SDS011;2263;54.654;9.410;2022-12-22T00:06:33;54.03;;;23.53;;
4500;SDS011;2263;54.654;9.410;2022-12-22T00:09:19;57.40;;;25.97;;
4500;SDS011;2263;54.654;9.410;2022-12-22T00:12:05;54.50;;;25.40;;
4500;SDS011;2263;54.654;9.410;2022-12-22T00:14:54;50.20;;;24.30;;
4500;SDS011;2263;54.654;9.410;2022-12-22T00:17:40;63.53;;;25.90;;
4500;SDS011;2263;54.654;9.410;2022-12-22T00:20:25;43.90;;;24.40;;
4500;SDS011;2263;54.654;9.410;2022-12-22T00:23:11;57.20;;;25.97;;
4500;SDS011;2263;54.654;9.410;2022-12-22T00:25:57;51.27;;;24.37;;
4500;SDS011;2263;54.654;9.410;2022-12-22T00:28:43;54.27;;;24.27;;
4500;SDS011;2263;54.654;9.410;2022-12-22T00:31:28;49.60;;;25.40;;
4500;SDS011;2263;54.654;9.410;2022-12-22T00:34:14;52.57;;;24.47;;
4500;SDS011;2263;54.654;9.410;2022-12-22T00:37:02;56.00;;;26.00;;
4500;SDS011;2263;54.654;9.410;2022-12-22T00:39:48;48.97;;;24.10;;
4500;SDS011;2263;54.654;9.410;2022-12-22T00:42:34;62.30;;;25.03;;
4500;SDS011;2263;54.654;9.410;2022-12-22T00:45:20;49.60;;;23.70;;
4500;SDS011;2263;54.654;9.410;2022-12-22T00:48:07;51.23;;;24.17;;
4500;SDS011;2263;54.654;9.410;2022-12-22T00:51:14;55.83;;;23.80;;
4500;SDS011;2263;54.654;9.410;2022-12-22T00:54:01;49.07;;;24.70;;
4500;SDS011;2263;54.654;9.410;2022-12-22T00:56:47;46.77;;;23.33;;
4500;SDS011;2263;54.654;9.410;2022-12-22T00:59:33;46.27;;;21.93;;
4500;SDS011;2263;54.654;9.410;2022-12-22T01:02:18;41.83;;;22.90;;
4500;SDS011;2263;54.654;9.410;2022-12-22T01:05:04;51.63;;;23.60;;
4500;SDS011;2263;54.654;9.410;2022-12-22T01:07:50;47.10;;;23.97;;
4500;SDS011;2263;54.654;9.410;2022-12-22T01:10:35;46.30;;;22.93;;
4500;SDS011;2263;54.654;9.410;2022-12-22T01:13:21;51.23;;;23.90;;
4500;SDS011;2263;54.654;9.410;2022-12-22T01:16:10;54.03;;;24.70;;
4500;SDS011;2263;54.654;9.410;2022-12-22T01:18:56;52.80;;;25.03;;
4500;SDS011;2263;54.654;9.410;2022-12-22T01:21:42;58.33;;;23.40;;
4500;SDS011;2263;54.654;9.410;2022-12-22T01:24:28;54.47;;;23.57;;
4500;SDS011;2263;54.654;9.410;2022-12-22T01:27:14;47.53;;;25.20;;
4500;SDS011;2263;54.654;9.410;2022-12-22T01:30:00;50.27;;;23.93;;
4500;SDS011;2263;54.654;9.410;2022-12-22T01:32:45;59.10;;;24.83;;
4500;SDS011;2263;54.654;9.410;2022-12-22T01:35:32;40.63;;;21.53;;
4500;SDS011;2263;54.654;9.410;2022-12-22T01:38:18;43.10;;;23.50;;
4500;SDS011;2263;54.654;9.410;2022-12-22T01:41:04;48.53;;;23.47;;
4500;SDS011;2263;54.654;9.410;2022-12-22T01:43:54;55.47;;;24.60;;
4500;SDS011;2263;54.654;9.410;2022-12-22T01:46:41;55.20;;;25.47;;
4500;SDS011;2263;54.654;9.410;2022-12-22T01:49:29;56.37;;;27.67;;
4500;SDS011;2263;54.654;9.410;2022-12-22T01:52:23;49.80;;;23.20;;
4500;SDS011;2263;54.654;9.410;2022-12-22T01:55:12;57.33;;;26.53;;
4500;SDS011;2263;54.654;9.410;2022-12-22T01:58:00;47.80;;;23.83;;
4500;SDS011;2263;54.654;9.410;2022-12-22T02:00:46;49.23;;;24.50;;
4500;SDS011;2263;54.654;9.410;2022-12-22T02:03:31;48.17;;;24.50;;
4500;SDS011;2263;54.654;9.410;2022-12-22T02:06:32;49.23;;;24.10;;
4500;SDS011;2263;54.654;9.410;2022-12-22T02:15:47;46.07;;;23.23;;
4500;SDS011;2263;54.654;9.410;2022-12-22T02:18:41;52.90;;;23.53;;
4500;SDS011;2263;54.654;9.410;2022-12-22T02:25:06;56.90;;;26.00;;
4500;SDS011;2263;54.654;9.410;2022-12-22T02:27:57;46.20;;;22.97;;
4500;SDS011;2263;54.654;9.410;2022-12-22T02:30:45;43.63;;;22.50;;
4500;SDS011;2263;54.654;9.410;2022-12-22T02:33:33;47.17;;;23.63;;
4500;SDS011;2263;54.654;9.410;2022-12-22T02:42:18;48.60;;;24.40;;
4500;SDS011;2263;54.654;9.410;2022-12-22T02:48:48;43.73;;;23.37;;
4500;SDS011;2263;54.654;9.410;2022-12-22T02:51:58;44.33;;;22.53;;
4500;SDS011;2263;54.654;9.410;2022-12-22T02:54:55;46.67;;;23.67;;
4500;SDS011;2263;54.654;9.410;2022-12-22T02:57:44;48.83;;;24.03;;
4500;SDS011;2263;54.654;9.410;2022-12-22T03:00:30;44.30;;;22.50;;
4500;SDS011;2263;54.654;9.410;2022-12-22T03:03:15;44.27;;;23.03;;
4500;SDS011;2263;54.654;9.410;2022-12-22T03:06:01;44.80;;;24.23;;
4500;SDS011;2263;54.654;9.410;2022-12-22T03:08:50;56.57;;;26.37;;
4500;SDS011;2263;54.654;9.410;2022-12-22T03:11:35;42.73;;;22.87;;
4500;SDS011;2263;54.654;9.410;2022-12-22T03:14:21;48.47;;;23.20;;
4500;SDS011;2263;54.654;9.410;2022-12-22T03:17:06;47.50;;;22.30;;
4500;SDS011;2263;54.654;9.410;2022-12-22T03:19:52;45.30;;;21.13;;
4500;SDS011;2263;54.654;9.410;2022-12-22T03:22:37;42.73;;;23.47;;
4500;SDS011;2263;54.654;9.410;2022-12-22T03:25:23;43.67;;;22.80;;
4500;SDS011;2263;54.654;9.410;2022-12-22T03:28:09;47.93;;;22.67;;
4500;SDS011;2263;54.654;9.410;2022-12-22T03:30:37;56.13;;;23.57;;
4500;SDS011;2263;54.654;9.410;2022-12-22T03:33:04;48.70;;;24.50;;
4500;SDS011;2263;54.654;9.410;2022-12-22T03:35:31;50.60;;;22.63;;
4500;SDS011;2263;54.654;9.410;2022-12-22T03:37:58;46.53;;;21.87;;
4500;SDS011;2263;54.654;9.410;2022-12-22T03:40:29;47.57;;;21.60;;
4500;SDS011;2263;54.654;9.410;2022-12-22T03:42:56;47.37;;;24.50;;
4500;SDS011;2263;54.654;9.410;2022-12-22T03:45:42;45.00;;;22.80;;
4500;SDS011;2263;54.654;9.410;2022-12-22T03:48:28;50.30;;;24.60;;
4500;SDS011;2263;54.654;9.410;2022-12-22T03:50:55;50.47;;;23.90;;
4500;SDS011;2263;54.654;9.410;2022-12-22T03:53:22;50.60;;;24.83;;
4500;SDS011;2263;54.654;9.410;2022-12-22T03:55:49;49.70;;;22.83;;
4500;SDS011;2263;54.654;9.410;2022-12-22T03:58:16;49.03;;;22.20;;
4500;SDS011;2263;54.654;9.410;2022-12-22T04:00:45;49.53;;;24.90;;
4500;SDS011;2263;54.654;9.410;2022-12-22T04:03:12;44.37;;;22.97;;
4500;SDS011;2263;54.654;9.410;2022-12-22T04:05:40;51.53;;;23.00;;
4500;SDS011;2263;54.654;9.410;2022-12-22T04:08:07;51.63;;;23.53;;
4500;SDS011;2263;54.654;9.410;2022-12-22T04:10:34;44.77;;;22.77;;
4500;SDS011;2263;54.654;9.410;2022-12-22T04:13:20;54.70;;;24.27;;
4500;SDS011;2263;54.654;9.410;2022-12-22T04:15:47;40.67;;;21.80;;
4500;SDS011;2263;54.654;9.410;2022-12-22T04:18:14;45.37;;;24.07;;
4500;SDS011;2263;54.654;9.410;2022-12-22T04:20:41;47.23;;;25.17;;
4500;SDS011;2263;54.654;9.410;2022-12-22T04:23:08;46.73;;;23.50;;
4500;SDS011;2263;54.654;9.410;2022-12-22T04:25:35;47.40;;;23.07;;
4500;SDS011;2263;54.654;9.410;2022-12-22T04:28:02;48.80;;;26.00;;
4500;SDS011;2263;54.654;9.410;2022-12-22T04:30:29;52.53;;;22.47;;
4500;SDS011;2263;54.654;9.410;2022-12-22T04:32:56;43.73;;;21.73;;
4500;SDS011;2263;54.654;9.410;2022-12-22T04:35:23;45.60;;;22.23;;
4500;SDS011;2263;54.654;9.410;2022-12-22T04:37:50;52.37;;;21.23;;
4500;SDS011;2263;54.654;9.410;2022-12-22T04:40:17;43.80;;;20.87;;
4500;SDS011;2263;54.654;9.410;2022-12-22T04:42:45;47.07;;;22.50;;
4500;SDS011;2263;54.654;9.410;2022-12-22T04:45:12;44.43;;;23.50;;
4500;SDS011;2263;54.654;9.410;2022-12-22T04:47:39;43.30;;;22.20;;
4500;SDS011;2263;54.654;9.410;2022-12-22T04:50:06;55.87;;;24.10;;
4500;SDS011;2263;54.654;9.410;2022-12-22T04:52:33;46.93;;;22.30;;
4500;SDS011;2263;54.654;9.410;2022-12-22T04:55:00;43.73;;;20.40;;
4500;SDS011;2263;54.654;9.410;2022-12-22T04:57:28;49.13;;;23.80;;
4500;SDS011;2263;54.654;9.410;2022-12-22T04:59:55;41.93;;;22.57;;
4500;SDS011;2263;54.654;9.410;2022-12-22T05:02:22;39.70;;;21.73;;
4500;SDS011;2263;54.654;9.410;2022-12-22T05:04:49;46.23;;;22.23;;
4500;SDS011;2263;54.654;9.410;2022-12-22T05:07:16;45.67;;;22.30;;
4500;SDS011;2263;54.654;9.410;2022-12-22T05:09:43;39.80;;;21.27;;
4500;SDS011;2263;54.654;9.410;2022-12-22T05:12:10;46.10;;;23.77;;
4500;SDS011;2263;54.654;9.410;2022-12-22T05:14:56;45.03;;;21.53;;
4500;SDS011;2263;54.654;9.410;2022-12-22T05:17:23;44.70;;;22.83;;
4500;SDS011;2263;54.654;9.410;2022-12-22T05:19:50;55.43;;;25.67;;
4500;SDS011;2263;54.654;9.410;2022-12-22T05:22:17;47.90;;;22.10;;
4500;SDS011;2263;54.654;9.410;2022-12-22T05:24:44;49.57;;;25.43;;
4500;SDS011;2263;54.654;9.410;2022-12-22T05:27:11;48.53;;;24.80;;
4500;SDS011;2263;54.654;9.410;2022-12-22T05:29:38;50.50;;;24.40;;
4500;SDS011;2263;54.654;9.410;2022-12-22T05:32:05;52.80;;;24.60;;
4500;SDS011;2263;54.654;9.410;2022-12-22T05:34:32;52.63;;;23.60;;
4500;SDS011;2263;54.654;9.410;2022-12-22T05:36:59;58.50;;;25.60;;
4500;SDS011;2263;54.654;9.410;2022-12-22T05:39:26;64.40;;;27.27;;
4500;SDS011;2263;54.654;9.410;2022-12-22T05:41:53;50.60;;;26.10;;
4500;SDS011;2263;54.654;9.410;2022-12-22T05:44:20;57.60;;;25.57;;
4500;SDS011;2263;54.654;9.410;2022-12-22T05:46:50;55.67;;;25.90;;
4500;SDS011;2263;54.654;9.410;2022-12-22T05:49:18;50.03;;;23.93;;
4500;SDS011;2263;54.654;9.410;2022-12-22T05:51:45;57.43;;;25.47;;
4500;SDS011;2263;54.654;9.410;2022-12-22T05:54:17;61.03;;;27.30;;
4500;SDS011;2263;54.654;9.410;2022-12-22T05:56:44;57.23;;;25.73;;
4500;SDS011;2263;54.654;9.410;2022-12-22T05:59:11;49.87;;;23.63;;
4500;SDS011;2263;54.654;9.410;2022-12-22T06:01:38;55.63;;;26.37;;
4500;SDS011;2263;54.654;9.410;2022-12-22T06:04:05;64.27;;;24.70;;
4500;SDS011;2263;54.654;9.410;2022-12-22T06:06:32;53.50;;;25.57;;
4500;SDS011;2263;54.654;9.410;2022-12-22T06:08:59;54.73;;;27.07;;
4500;SDS011;2263;54.654;9.410;2022-12-22T06:11:26;57.80;;;27.87;;
4500;SDS011;2263;54.654;9.410;2022-12-22T06:13:54;60.30;;;25.23;;
4500;SDS011;2263;54.654;9.410;2022-12-22T06:16:21;64.03;;;27.80;;
4500;SDS011;2263;54.654;9.410;2022-12-22T06:18:49;58.23;;;26.57;;
4500;SDS011;2263;54.654;9.410;2022-12-22T06:21:16;57.47;;;26.80;;
4500;SDS011;2263;54.654;9.410;2022-12-22T06:23:43;59.60;;;28.57;;
4500;SDS011;2263;54.654;9.410;2022-12-22T06:26:10;52.30;;;25.00;;
4500;SDS011;2263;54.654;9.410;2022-12-22T06:28:37;54.77;;;26.30;;
4500;SDS011;2263;54.654;9.410;2022-12-22T06:31:04;57.63;;;26.70;;
4500;SDS011;2263;54.654;9.410;2022-12-22T06:33:32;49.43;;;25.00;;
4500;SDS011;2263;54.654;9.410;2022-12-22T06:36:02;53.00;;;26.73;;
4500;SDS011;2263;54.654;9.410;2022-12-22T06:38:30;51.73;;;25.90;;
4500;SDS011;2263;54.654;9.410;2022-12-22T06:40:58;55.33;;;27.13;;
4500;SDS011;2263;54.654;9.410;2022-12-22T06:43:25;56.17;;;28.13;;
4500;SDS011;2263;54.654;9.410;2022-12-22T06:45:52;54.23;;;26.13;;
4500;SDS011;2263;54.654;9.410;2022-12-22T06:48:19;53.53;;;24.80;;
4500;SDS011;2263;54.654;9.410;2022-12-22T06:50:46;53.63;;;26.33;;
4500;SDS011;2263;54.654;9.410;2022-12-22T06:53:14;53.00;;;26.13;;
4500;SDS011;2263;54.654;9.410;2022-12-22T06:55:41;53.43;;;25.27;;
4500;SDS011;2263;54.654;9.410;2022-12-22T06:58:08;51.77;;;25.00;;
4500;SDS011;2263;54.654;9.410;2022-12-22T07:00:35;326.23;;;160.47;;
4500;SDS011;2263;54.654;9.410;2022-12-22T07:03:03;224.00;;;110.30;;
4500;SDS011;2263;54.654;9.410;2022-12-22T07:05:34;131.07;;;62.73;;
4500;SDS011;2263;54.654;9.410;2022-12-22T07:08:03;119.30;;;55.67;;
4500;SDS011;2263;54.654;9.410;2022-12-22T07:10:34;122.70;;;56.90;;
4500;SDS011;2263;54.654;9.410;2022-12-22T07:13:19;102.23;;;49.33;;
4500;SDS011;2263;54.654;9.410;2022-12-22T07:15:47;121.63;;;52.23;;
4500;SDS011;2263;54.654;9.410;2022-12-22T07:18:24;80.13;;;42.73;;
4500;SDS011;2263;54.654;9.410;2022-12-22T07:20:52;84.87;;;38.30;;
4500;SDS011;2263;54.654;9.410;2022-12-22T07:23:20;89.87;;;43.90;;
4500;SDS011;2263;54.654;9.410;2022-12-22T07:25:47;80.73;;;39.13;;
4500;SDS011;2263;54.654;9.410;2022-12-22T07:28:14;77.70;;;35.30;;
4500;SDS011;2263;54.654;9.410;2022-12-22T07:30:47;74.27;;;36.33;;
4500;SDS011;2263;54.654;9.410;2022-12-22T07:33:16;69.93;;;34.27;;
4500;SDS011;2263;54.654;9.410;2022-12-22T07:35:44;68.43;;;32.30;;
4500;SDS011;2263;54.654;9.410;2022-12-22T07:38:12;58.20;;;31.27;;
4500;SDS011;2263;54.654;9.410;2022-12-22T07:40:39;54.80;;;28.00;;
4500;SDS011;2263;54.654;9.410;2022-12-22T07:43:08;58.63;;;28.30;;
4500;SDS011;2263;54.654;9.410;2022-12-22T07:45:39;53.03;;;26.87;;
4500;SDS011;2263;54.654;9.410;2022-12-22T07:48:06;59.57;;;29.33;;
4500;SDS011;2263;54.654;9.410;2022-12-22T07:50:54;56.87;;;28.43;;
4500;SDS011;2263;54.654;9.410;2022-12-22T07:53:27;52.70;;;25.53;;
4500;SDS011;2263;54.654;9.410;2022-12-22T07:55:54;54.47;;;25.70;;
4500;SDS011;2263;54.654;9.410;2022-12-22T07:58:21;42.10;;;22.67;;
4500;SDS011;2263;54.654;9.410;2022-12-22T08:00:48;48.40;;;21.77;;
4500;SDS011;2263;54.654;9.410;2022-12-22T08:03:15;44.80;;;24.17;;
4500;SDS011;2263;54.654;9.410;2022-12-22T08:05:42;45.87;;;23.20;;
4500;SDS011;2263;54.654;9.410;2022-12-22T08:08:10;47.00;;;23.13;;
4500;SDS011;2263;54.654;9.410;2022-12-22T08:10:37;42.83;;;23.10;;
4500;SDS011;2263;54.654;9.410;2022-12-22T08:13:07;42.63;;;21.77;;
4500;SDS011;2263;54.654;9.410;2022-12-22T08:15:34;43.80;;;22.63;;
4500;SDS011;2263;54.654;9.410;2022-12-22T08:18:03;38.30;;;22.47;;
4500;SDS011;2263;54.654;9.410;2022-12-22T08:20:30;42.30;;;20.70;;
4500;SDS011;2263;54.654;9.410;2022-12-22T08:22:57;35.27;;;18.10;;
4500;SDS011;2263;54.654;9.410;2022-12-22T08:25:24;40.00;;;20.67;;
4500;SDS011;2263;54.654;9.410;2022-12-22T08:27:52;41.57;;;20.67;;
4500;SDS011;2263;54.654;9.410;2022-12-22T08:30:21;39.47;;;18.03;;
4500;SDS011;2263;54.654;9.410;2022-12-22T08:32:49;33.43;;;18.30;;
4500;SDS011;2263;54.654;9.410;2022-12-22T08:35:18;35.33;;;19.63;;
4500;SDS011;2263;54.654;9.410;2022-12-22T08:37:45;36.17;;;19.57;;
4500;SDS011;2263;54.654;9.410;2022-12-22T08:40:15;38.80;;;18.33;;
4500;SDS011;2263;54.654;9.410;2022-12-22T08:42:51;37.90;;;19.13;;
4500;SDS011;2263;54.654;9.410;2022-12-22T08:45:24;35.47;;;17.33;;
4500;SDS011;2263;54.654;9.410;2022-12-22T08:47:51;33.13;;;18.27;;
4500;SDS011;2263;54.654;9.410;2022-12-22T08:50:18;33.67;;;17.37;;
4500;SDS011;2263;54.654;9.410;2022-12-22T08:52:45;34.20;;;15.83;;
4500;SDS011;2263;54.654;9.410;2022-12-22T08:55:13;36.03;;;18.10;;
4500;SDS011;2263;54.654;9.410;2022-12-22T08:57:40;33.10;;;16.43;;
4500;SDS011;2263;54.654;9.410;2022-12-22T09:00:07;32.23;;;15.53;;
4500;SDS011;2263;54.654;9.410;2022-12-22T09:02:38;32.33;;;16.27;;
4500;SDS011;2263;54.654;9.410;2022-12-22T09:05:06;32.47;;;15.80;;
4500;SDS011;2263;54.654;9.410;2022-12-22T09:07:33;35.80;;;15.87;;
4500;SDS011;2263;54.654;9.410;2022-12-22T09:10:00;25.80;;;14.83;;
4500;SDS011;2263;54.654;9.410;2022-12-22T09:12:28;33.17;;;14.60;;
4500;SDS011;2263;54.654;9.410;2022-12-22T09:14:55;25.47;;;14.40;;
4500;SDS011;2263;54.654;9.410;2022-12-22T09:17:22;34.70;;;15.30;;
4500;SDS011;2263;54.654;9.410;2022-12-22T09:19:49;31.57;;;14.97;;
4500;SDS011;2263;54.654;9.410;2022-12-22T09:22:20;31.37;;;16.00;;
4500;SDS011;2263;54.654;9.410;2022-12-22T09:24:54;31.90;;;14.97;;
4500;SDS011;2263;54.654;9.410;2022-12-22T09:27:21;31.10;;;15.40;;
4500;SDS011;2263;54.654;9.410;2022-12-22T09:29:48;28.80;;;15.43;;
4500;SDS011;2263;54.654;9.410;2022-12-22T09:32:15;32.10;;;15.50;;
4500;SDS011;2263;54.654;9.410;2022-12-22T09:34:43;33.80;;;15.23;;
4500;SDS011;2263;54.654;9.410;2022-12-22T09:37:10;37.47;;;16.63;;
4500;SDS011;2263;54.654;9.410;2022-12-22T09:39:39;29.90;;;14.67;;
4500;SDS011;2263;54.654;9.410;2022-12-22T09:42:11;35.43;;;14.63;;
4500;SDS011;2263;54.654;9.410;2022-12-22T09:44:41;36.90;;;16.67;;
4500;SDS011;2263;54.654;9.410;2022-12-22T09:47:15;38.20;;;16.60;;
4500;SDS011;2263;54.654;9.410;2022-12-22T09:50:14;36.90;;;15.60;;
4500;SDS011;2263;54.654;9.410;2022-12-22T09:52:45;32.60;;;16.10;;
4500;SDS011;2263;54.654;9.410;2022-12-22T09:56:00;24.80;;;12.93;;
4500;SDS011;2263;54.654;9.410;2022-12-22T09:58:02;27.63;;;14.10;;
4500;SDS011;2263;54.654;9.410;2022-12-22T10:00:29;31.17;;;14.47;;
4500;SDS011;2263;54.654;9.410;2022-12-22T10:03:02;31.03;;;14.97;;
4500;SDS011;2263;54.654;9.410;2022-12-22T10:05:52;38.47;;;15.33;;
4500;SDS011;2263;54.654;9.410;2022-12-22T10:08:42;33.83;;;15.30;;
4500;SDS011;2263;54.654;9.410;2022-12-22T10:11:13;41.33;;;15.60;;
4500;SDS011;2263;54.654;9.410;2022-12-22T10:13:43;38.33;;;16.93;;
4500;SDS011;2263;54.654;9.410;2022-12-22T10:16:17;22.40;;;12.50;;
4500;SDS011;2263;54.654;9.410;2022-12-22T10:18:54;37.90;;;16.10;;
4500;SDS011;2263;54.654;9.410;2022-12-22T10:21:23;23.47;;;14.43;;
4500;SDS011;2263;54.654;9.410;2022-12-22T10:23:51;31.43;;;14.70;;
4500;SDS011;2263;54.654;9.410;2022-12-22T10:26:20;38.40;;;14.10;;
4500;SDS011;2263;54.654;9.410;2022-12-22T10:31:33;30.83;;;14.50;;
4500;SDS011;2263;54.654;9.410;2022-12-22T10:34:15;24.80;;;12.10;;
4500;SDS011;2263;54.654;9.410;2022-12-22T10:36:47;30.70;;;13.90;;
4500;SDS011;2263;54.654;9.410;2022-12-22T10:39:20;27.07;;;15.43;;
4500;SDS011;2263;54.654;9.410;2022-12-22T10:41:49;29.73;;;13.10;;
4500;SDS011;2263;54.654;9.410;2022-12-22T10:44:27;23.97;;;12.43;;
4500;SDS011;2263;54.654;9.410;2022-12-22T10:46:57;34.30;;;14.40;;
4500;SDS011;2263;54.654;9.410;2022-12-22T10:49:28;36.80;;;14.77;;
4500;SDS011;2263;54.654;9.410;2022-12-22T10:52:07;28.83;;;13.43;;
4500;SDS011;2263;54.654;9.410;2022-12-22T10:54:38;25.90;;;12.80;;
4500;SDS011;2263;54.654;9.410;2022-12-22T10:59:53;35.17;;;14.50;;
4500;SDS011;2263;54.654;9.410;2022-12-22T11:07:33;28.27;;;14.37;;
4500;SDS011;2263;54.654;9.410;2022-12-22T11:16:19;30.33;;;13.60;;
4500;SDS011;2263;54.654;9.410;2022-12-22T11:19:14;23.60;;;10.83;;
4500;SDS011;2263;54.654;9.410;2022-12-22T11:30:39;21.40;;;10.60;;
4500;SDS011;2263;54.654;9.410;2022-12-22T11:40:02;23.50;;;11.90;;
4500;SDS011;2263;54.654;9.410;2022-12-22T11:45:22;21.80;;;10.07;;
4500;SDS011;2263;54.654;9.410;2022-12-22T11:50:54;23.70;;;10.30;;
4500;SDS011;2263;54.654;9.410;2022-12-22T11:56:43;19.20;;;10.37;;
4500;SDS011;2263;54.654;9.410;2022-12-22T11:59:41;25.17;;;8.13;;
4500;SDS011;2263;54.654;9.410;2022-12-22T12:07:36;32.07;;;9.30;;
4500;SDS011;2263;54.654;9.410;2022-12-22T12:13:11;18.60;;;9.00;;
4500;SDS011;2263;54.654;9.410;2022-12-22T12:18:54;13.50;;;7.10;;
4500;SDS011;2263;54.654;9.410;2022-12-22T12:27:18;17.20;;;7.67;;
4500;SDS011;2263;54.654;9.410;2022-12-22T12:30:02;23.80;;;9.20;;
4500;SDS011;2263;54.654;9.410;2022-12-22T12:33:15;20.70;;;8.40;;
4500;SDS011;2263;54.654;9.410;2022-12-22T12:35:54;12.87;;;7.57;;
4500;SDS011;2263;54.654;9.410;2022-12-22T12:44:20;18.20;;;9.60;;
4500;SDS011;2263;54.654;9.410;2022-12-22T12:52:01;18.97;;;7.83;;
4500;SDS011;2263;54.654;9.410;2022-12-22T12:54:45;21.07;;;6.83;;
4500;SDS011;2263;54.654;9.410;2022-12-22T12:59:50;26.40;;;8.30;;
4500;SDS011;2263;54.654;9.410;2022-12-22T13:04:59;19.07;;;7.50;;
4500;SDS011;2263;54.654;9.410;2022-12-22T13:13:56;14.30;;;8.13;;
4500;SDS011;2263;54.654;9.410;2022-12-22T13:26:40;12.57;;;6.20;;
4500;SDS011;2263;54.654;9.410;2022-12-22T13:31:53;16.50;;;6.53;;
4500;SDS011;2263;54.654;9.410;2022-12-22T13:37:27;11.37;;;5.80;;
4500;SDS011;2263;54.654;9.410;2022-12-22T13:42:35;16.60;;;7.10;;
4500;SDS011;2263;54.654;9.410;2022-12-22T13:45:16;13.10;;;6.70;;
4500;SDS011;2263;54.654;9.410;2022-12-22T13:47:59;20.97;;;7.27;;
4500;SDS011;2263;54.654;9.410;2022-12-22T13:50:32;14.63;;;8.13;;
4500;SDS011;2263;54.654;9.410;2022-12-22T13:53:02;15.50;;;7.77;;
4500;SDS011;2263;54.654;9.410;2022-12-22T13:55:48;20.93;;;8.43;;
4500;SDS011;2263;54.654;9.410;2022-12-22T13:58:24;29.93;;;8.67;;
4500;SDS011;2263;54.654;9.410;2022-12-22T14:01:11;16.47;;;8.67;;
4500;SDS011;2263;54.654;9.410;2022-12-22T14:03:47;28.60;;;9.00;;
4500;SDS011;2263;54.654;9.410;2022-12-22T14:09:08;24.03;;;10.00;;
4500;SDS011;2263;54.654;9.410;2022-12-22T14:11:50;21.03;;;6.87;;
4500;SDS011;2263;54.654;9.410;2022-12-22T14:14:23;29.17;;;7.63;;
4500;SDS011;2263;54.654;9.410;2022-12-22T14:16:56;17.40;;;7.87;;
4500;SDS011;2263;54.654;9.410;2022-12-22T14:19:29;22.33;;;8.03;;
4500;SDS011;2263;54.654;9.410;2022-12-22T14:22:03;23.30;;;8.97;;
4500;SDS011;2263;54.654;9.410;2022-12-22T14:24:40;19.27;;;6.90;;
4500;SDS011;2263;54.654;9.410;2022-12-22T14:30:01;29.60;;;7.63;;
4500;SDS011;2263;54.654;9.410;2022-12-22T14:32:34;18.10;;;7.47;;
4500;SDS011;2263;54.654;9.410;2022-12-22T14:37:49;20.70;;;8.10;;
4500;SDS011;2263;54.654;9.410;2022-12-22T14:40:27;22.73;;;7.00;;
4500;SDS011;2263;54.654;9.410;2022-12-22T14:42:59;29.90;;;9.20;;
4500;SDS011;2263;54.654;9.410;2022-12-22T14:45:29;19.87;;;8.07;;
4500;SDS011;2263;54.654;9.410;2022-12-22T14:47:56;14.97;;;6.97;;
4500;SDS011;2263;54.654;9.410;2022-12-22T14:50:24;14.80;;;7.47;;
4500;SDS011;2263;54.654;9.410;2022-12-22T14:52:59;19.63;;;7.40;;
4500;SDS011;2263;54.654;9.410;2022-12-22T14:55:31;14.37;;;5.53;;
4500;SDS011;2263;54.654;9.410;2022-12-22T15:00:33;11.90;;;5.63;;
4500;SDS011;2263;54.654;9.410;2022-12-22T15:03:04;18.53;;;5.30;;
4500;SDS011;2263;54.654;9.410;2022-12-22T15:05:51;14.47;;;5.43;;
4500;SDS011;2263;54.654;9.410;2022-12-22T15:08:37;19.13;;;5.97;;
4500;SDS011;2263;54.654;9.410;2022-12-22T15:11:09;12.43;;;5.40;;
4500;SDS011;2263;54.654;9.410;2022-12-22T15:13:39;18.87;;;5.90;;
4500;SDS011;2263;54.654;9.410;2022-12-22T15:16:07;18.60;;;5.23;;
4500;SDS011;2263;54.654;9.410;2022-12-22T15:18:40;16.33;;;4.27;;
4500;SDS011;2263;54.654;9.410;2022-12-22T15:21:08;22.57;;;5.03;;
4500;SDS011;2263;54.654;9.410;2022-12-22T15:23:39;20.43;;;4.67;;
4500;SDS011;2263;54.654;9.410;2022-12-22T15:26:06;9.37;;;5.70;;
4500;SDS011;2263;54.654;9.410;2022-12-22T15:28:34;18.37;;;4.63;;
4500;SDS011;2263;54.654;9.410;2022-12-22T15:31:01;14.10;;;5.93;;
4500;SDS011;2263;54.654;9.410;2022-12-22T15:33:30;21.40;;;4.60;;
4500;SDS011;2263;54.654;9.410;2022-12-22T15:35:57;13.60;;;5.60;;
4500;SDS011;2263;54.654;9.410;2022-12-22T15:38:24;18.17;;;5.37;;
4500;SDS011;2263;54.654;9.410;2022-12-22T15:40:51;12.50;;;6.53;;
4500;SDS011;2263;54.654;9.410;2022-12-22T15:43:18;22.13;;;5.23;;
4500;SDS011;2263;54.654;9.410;2022-12-22T15:46:05;11.23;;;4.10;;
4500;SDS011;2263;54.654;9.410;2022-12-22T15:48:34;22.97;;;4.60;;
4500;SDS011;2263;54.654;9.410;2022-12-22T15:51:03;21.33;;;3.70;;
4500;SDS011;2263;54.654;9.410;2022-12-22T15:53:33;23.07;;;4.10;;
4500;SDS011;2263;54.654;9.410;2022-12-22T15:56:00;19.10;;;3.80;;
4500;SDS011;2263;54.654;9.410;2022-12-22T15:58:31;12.43;;;4.27;;
4500;SDS011;2263;54.654;9.410;2022-12-22T16:01:01;20.67;;;4.53;;
4500;SDS011;2263;54.654;9.410;2022-12-22T16:03:29;16.30;;;5.03;;
4500;SDS011;2263;54.654;9.410;2022-12-22T16:05:56;11.40;;;3.63;;
4500;SDS011;2263;54.654;9.410;2022-12-22T16:08:26;22.40;;;4.20;;
4500;SDS011;2263;54.654;9.410;2022-12-22T16:10:58;14.03;;;3.77;;
4500;SDS011;2263;54.654;9.410;2022-12-22T16:13:26;15.67;;;3.87;;
4500;SDS011;2263;54.654;9.410;2022-12-22T16:15:57;20.07;;;5.10;;
4500;SDS011;2263;54.654;9.410;2022-12-22T16:18:24;16.57;;;4.40;;
4500;SDS011;2263;54.654;9.410;2022-12-22T16:20:52;19.43;;;3.97;;
4500;SDS011;2263;54.654;9.410;2022-12-22T16:23:20;26.67;;;6.93;;
4500;SDS011;2263;54.654;9.410;2022-12-22T16:25:53;12.70;;;3.83;;
4500;SDS011;2263;54.654;9.410;2022-12-22T16:28:27;19.67;;;3.90;;
4500;SDS011;2263;54.654;9.410;2022-12-22T16:30:54;32.33;;;4.70;;
4500;SDS011;2263;54.654;9.410;2022-12-22T16:33:21;24.60;;;4.40;;
4500;SDS011;2263;54.654;9.410;2022-12-22T16:35:48;18.13;;;4.87;;
4500;SDS011;2263;54.654;9.410;2022-12-22T16:38:15;14.57;;;3.57;;
4500;SDS011;2263;54.654;9.410;2022-12-22T16:40:49;11.63;;;3.53;;
4500;SDS011;2263;54.654;9.410;2022-12-22T16:46:14;37.90;;;4.33;;
4500;SDS011;2263;54.654;9.410;2022-12-22T16:48:44;18.70;;;4.70;;
4500;SDS011;2263;54.654;9.410;2022-12-22T16:51:20;23.50;;;4.40;;
4500;SDS011;2263;54.654;9.410;2022-12-22T16:53:50;15.43;;;3.67;;
4500;SDS011;2263;54.654;9.410;2022-12-22T16:56:22;28.33;;;5.50;;
4500;SDS011;2263;54.654;9.410;2022-12-22T16:58:53;25.63;;;3.67;;
4500;SDS011;2263;54.654;9.410;2022-12-22T17:04:09;26.47;;;5.17;;
4500;SDS011;2263;54.654;9.410;2022-12-22T17:06:40;22.03;;;4.27;;
4500;SDS011;2263;54.654;9.410;2022-12-22T17:09:12;15.47;;;4.37;;
4500;SDS011;2263;54.654;9.410;2022-12-22T17:11:44;14.63;;;5.47;;
4500;SDS011;2263;54.654;9.410;2022-12-22T17:16:56;32.43;;;4.80;;
4500;SDS011;2263;54.654;9.410;2022-12-22T17:19:24;27.20;;;4.50;;
4500;SDS011;2263;54.654;9.410;2022-12-22T17:21:51;33.97;;;6.90;;
4500;SDS011;2263;54.654;9.410;2022-12-22T17:24:20;20.87;;;4.70;;
4500;SDS011;2263;54.654;9.410;2022-12-22T17:26:54;40.90;;;6.10;;
4500;SDS011;2263;54.654;9.410;2022-12-22T17:29:25;36.23;;;6.97;;
4500;SDS011;2263;54.654;9.410;2022-12-22T17:31:52;17.67;;;4.53;;
4500;SDS011;2263;54.654;9.410;2022-12-22T17:34:22;38.30;;;5.10;;
4500;SDS011;2263;54.654;9.410;2022-12-22T17:36:49;20.73;;;4.70;;
4500;SDS011;2263;54.654;9.410;2022-12-22T17:39:18;18.77;;;4.33;;
4500;SDS011;2263;54.654;9.410;2022-12-22T17:41:46;18.33;;;4.00;;
4500;SDS011;2263;54.654;9.410;2022-12-22T17:44:23;24.00;;;4.33;;
4500;SDS011;2263;54.654;9.410;2022-12-22T17:46:51;23.87;;;4.80;;
4500;SDS011;2263;54.654;9.410;2022-12-22T17:49:19;29.17;;;5.13;;